Time;durP1;ratioP1;P1;durP2;ratioP2;P2;SDS_P1;SDS_P2;PMS_P1;PMS_P2;Temp;Humidity;BMP_temperature;BMP_pressure;BME280_temperature;BME280_humidity;BME280_pressure;Samples;Min_cycle;Max_cycle;Signal;HPM_P1;HPM_P2
2024/01/31 00:01:16;;;;;;;90.10;53.22;;;0.10;99.90;;;;;;4943286;28;20054;-74
2024/01/31 00:03:48;;;;;;;94.32;56.88;;;0.20;99.90;;;;;;4952346;28;20421;-74
2024/01/31 00:06:14;;;;;;;94.55;56.45;;;0.20;99.90;;;;;;4945825;28;20539;-73
2024/01/31 00:08:40;;;;;;;96.68;59.38;;;0.20;99.90;;;;;;4976627;28;20117;-75
2024/01/31 00:11:11;;;;;;;96.20;64.22;;;0.10;99.90;;;;;;4970069;28;20113;-76
2024/01/31 00:13:44;;;;;;;90.35;55.03;;;0.10;99.90;;;;;;4995680;28;20478;-74
2024/01/31 00:16:10;;;;;;;88.82;53.35;;;0.00;99.90;;;;;;4984290;28;20019;-73
2024/01/31 00:18:35;;;;;;;92.22;57.63;;;0.00;99.90;;;;;;4984169;28;20030;-76
2024/01/31 00:21:13;;;;;;;105.55;65.65;;;0.00;99.90;;;;;;4972639;28;20035;-74
2024/01/31 00:23:41;;;;;;;99.50;61.42;;;0.00;99.90;;;;;;4943221;28;20477;-74
2024/01/31 00:26:07;;;;;;;84.72;54.95;;;0.00;99.90;;;;;;4975530;28;20082;-74
2024/01/31 00:28:33;;;;;;;75.70;48.15;;;0.00;99.90;;;;;;4975967;28;20118;-75
2024/01/31 00:30:58;;;;;;;69.85;46.38;;;-0.10;99.90;;;;;;4975823;28;20092;-73
2024/01/31 00:33:24;;;;;;;82.75;49.47;;;-0.10;99.90;;;;;;4979219;28;20114;-77
2024/01/31 00:35:53;;;;;;;69.70;47.38;;;0.00;99.90;;;;;;4956674;28;20042;-75
2024/01/31 00:38:19;;;;;;;74.25;48.40;;;0.00;99.90;;;;;;4985661;28;20026;-74
2024/01/31 00:41:04;;;;;;;75.03;49.10;;;0.10;99.90;;;;;;4975851;28;20026;-75
2024/01/31 00:43:37;;;;;;;93.10;56.03;;;0.10;99.90;;;;;;4978972;28;20026;-74
2024/01/31 00:46:10;;;;;;;92.10;56.63;;;0.20;99.90;;;;;;4942382;28;20026;-75
2024/01/31 00:48:42;;;;;;;92.25;57.70;;;0.20;99.90;;;;;;4926902;28;20024;-77
2024/01/31 00:51:11;;;;;;;106.88;62.53;;;0.20;99.90;;;;;;4943153;28;20039;-74
2024/01/31 00:53:41;;;;;;;107.80;64.80;;;0.10;99.90;;;;;;4942287;28;20030;-75
2024/01/31 00:56:15;;;;;;;111.45;67.68;;;0.00;99.90;;;;;;4970531;28;20041;-75
2024/01/31 00:58:41;;;;;;;108.50;68.95;;;0.00;99.90;;;;;;4968736;28;20045;-74
2024/01/31 01:01:07;;;;;;;103.22;68.13;;;-0.10;99.90;;;;;;4976154;28;20042;-74
2024/01/31 01:03:33;;;;;;;107.60;65.07;;;-0.10;99.90;;;;;;4989679;28;20037;-74
2024/01/31 01:06:01;;;;;;;110.07;67.93;;;-0.20;99.90;;;;;;4958790;28;20379;-76
2024/01/31 01:08:37;;;;;;;102.13;66.13;;;-0.10;99.90;;;;;;4945905;28;20041;-75
2024/01/31 01:11:13;;;;;;;101.38;66.00;;;-0.20;99.90;;;;;;4942277;28;20038;-74
2024/01/31 01:13:41;;;;;;;96.80;62.33;;;-0.20;99.90;;;;;;4975117;28;20023;-74
2024/01/31 01:16:07;;;;;;;103.20;65.63;;;-0.20;99.90;;;;;;4958402;28;20479;-74
2024/01/31 01:18:33;;;;;;;97.68;65.15;;;-0.20;99.90;;;;;;4976223;28;20171;-74
2024/01/31 01:20:59;;;;;;;102.80;66.03;;;-0.20;99.90;;;;;;4975091;28;20134;-75
2024/01/31 01:23:25;;;;;;;99.53;66.82;;;-0.30;99.90;;;;;;4974925;28;20015;-77
2024/01/31 01:25:56;;;;;;;106.70;67.88;;;-0.40;99.90;;;;;;4974990;28;20050;-74
2024/01/31 01:28:30;;;;;;;105.60;68.07;;;-0.40;99.90;;;;;;4974741;28;20027;-76
2024/01/31 01:30:56;;;;;;;127.35;79.00;;;-0.60;99.90;;;;;;4941308;28;20117;-75
2024/01/31 01:33:21;;;;;;;136.52;86.40;;;-0.70;99.90;;;;;;4974786;28;20058;-74
2024/01/31 01:35:52;;;;;;;133.77;82.35;;;-0.80;99.90;;;;;;4972346;28;20510;-77
2024/01/31 01:38:33;;;;;;;128.43;81.85;;;-0.70;99.90;;;;;;4946114;28;20034;-76
2024/01/31 01:41:09;;;;;;;127.35;80.80;;;-0.70;99.90;;;;;;4927236;29;20050;-75
2024/01/31 01:43:37;;;;;;;138.75;87.50;;;-0.70;99.90;;;;;;4970732;28;20036;-75
2024/01/31 01:46:20;;;;;;;130.60;84.47;;;-0.70;99.90;;;;;;4974611;28;20027;-76
2024/01/31 01:48:48;;;;;;;131.50;81.88;;;-0.70;99.90;;;;;;4974267;28;20023;-78
2024/01/31 01:51:23;;;;;;;138.95;92.43;;;-0.70;99.90;;;;;;4974471;28;20049;-76
2024/01/31 01:53:50;;;;;;;134.75;87.53;;;-0.80;99.90;;;;;;4974100;28;20045;-73
2024/01/31 01:56:20;;;;;;;114.90;76.32;;;-0.90;99.90;;;;;;4974298;28;20479;-76
2024/01/31 01:58:55;;;;;;;;;;;-0.80;99.90;;;;;;4974076;28;20035;-75
2024/01/31 02:01:25;;;;;;;;;;;-0.80;99.90;;;;;;4957394;28;19918;-76
2024/01/31 02:03:55;;;;;;;134.55;85.47;;;-0.80;99.90;;;;;;4940882;28;19910;-75
2024/01/31 02:06:25;;;;;;;135.30;88.20;;;-0.90;99.90;;;;;;4940686;28;20026;-76
2024/01/31 02:08:51;;;;;;;138.05;85.57;;;-0.90;99.90;;;;;;4973985;28;20438;-76
2024/01/31 02:11:24;;;;;;;137.27;89.43;;;-0.90;99.90;;;;;;4962241;28;20409;-76
2024/01/31 02:13:54;;;;;;;135.98;85.95;;;-0.90;99.90;;;;;;4974055;28;20034;-75
2024/01/31 02:16:27;;;;;;;126.07;78.90;;;-1.00;99.90;;;;;;4973329;28;20046;-75
2024/01/31 02:19:04;;;;;;;123.20;79.03;;;-1.10;99.90;;;;;;4973961;28;20019;-75
2024/01/31 02:21:37;;;;;;;128.88;78.80;;;-1.10;99.90;;;;;;4916914;29;20365;-75
2024/01/31 02:24:03;;;;;;;127.13;82.15;;;-1.10;99.90;;;;;;4939247;29;20045;-75
2024/01/31 02:26:28;;;;;;;115.80;77.85;;;-1.20;99.90;;;;;;4910990;29;20024;-75
2024/01/31 02:28:55;;;;;;;126.78;78.70;;;-1.20;99.90;;;;;;4933433;29;20079;-75
2024/01/31 02:31:21;;;;;;;115.72;76.82;;;-1.10;99.90;;;;;;4925969;29;20483;-76
2024/01/31 02:33:47;;;;;;;121.22;76.63;;;-1.10;99.90;;;;;;4933528;29;20040;-76
2024/01/31 02:36:13;;;;;;;117.00;73.30;;;-1.10;99.90;;;;;;4916103;29;20496;-74
2024/01/31 02:38:39;;;;;;;112.82;73.38;;;-1.10;99.90;;;;;;4928559;29;20144;-73
2024/01/31 02:41:15;;;;;;;120.43;77.35;;;-1.20;99.90;;;;;;4930717;29;20055;-76
2024/01/31 02:43:43;;;;;;;115.65;75.03;;;-1.10;99.90;;;;;;4909693;29;20040;-76
2024/01/31 02:46:09;;;;;;;121.22;73.13;;;-1.20;99.90;;;;;;4954813;28;20530;-77
2024/01/31 02:48:35;;;;;;;108.63;73.82;;;-1.10;99.90;;;;;;4969171;28;20031;-76
2024/01/31 02:51:01;;;;;;;118.65;76.38;;;-1.20;99.90;;;;;;4963519;28;20089;-77
2024/01/31 02:53:31;;;;;;;121.95;75.25;;;-1.10;99.90;;;;;;4961767;28;20107;-77
2024/01/31 02:55:57;;;;;;;117.45;77.50;;;-1.20;99.90;;;;;;4950852;28;20031;-76
2024/01/31 02:58:25;;;;;;;136.27;83.93;;;-1.20;99.90;;;;;;4955611;28;20023;-75
2024/01/31 03:00:56;;;;;;;133.90;84.95;;;-1.20;99.90;;;;;;4960682;28;20042;-77
2024/01/31 03:03:25;;;;;;;130.40;83.55;;;-1.30;99.90;;;;;;4973062;28;20031;-75
2024/01/31 03:05:50;;;;;;;123.80;76.85;;;-1.30;99.90;;;;;;4956186;28;20026;-76
2024/01/31 03:08:16;;;;;;;130.05;79.45;;;-1.30;99.90;;;;;;4973227;28;20082;-76
2024/01/31 03:11:04;;;;;;;139.05;85.45;;;-1.30;99.90;;;;;;4947391;28;20046;-76
2024/01/31 03:13:32;;;;;;;148.52;90.10;;;-1.30;99.90;;;;;;4972910;28;20018;-77
2024/01/31 03:16:03;;;;;;;134.13;85.13;;;-1.40;99.90;;;;;;4973612;28;20486;-76
2024/01/31 03:18:33;;;;;;;143.25;90.40;;;-1.30;99.90;;;;;;4955663;28;20034;-76
2024/01/31 03:21:06;;;;;;;159.30;99.10;;;-1.30;99.90;;;;;;4971087;28;20031;-76
2024/01/31 03:23:39;;;;;;;164.35;103.25;;;-1.40;99.90;;;;;;4977545;28;20426;-75
2024/01/31 03:26:07;;;;;;;151.80;95.60;;;-1.40;99.90;;;;;;4943973;28;20035;-76
2024/01/31 03:28:33;;;;;;;177.18;108.53;;;-1.40;99.90;;;;;;4977373;28;20070;-74
2024/01/31 03:30:59;;;;;;;162.20;101.03;;;-1.40;99.90;;;;;;4975205;28;20045;-76
2024/01/31 03:33:25;;;;;;;179.20;114.25;;;-1.40;99.90;;;;;;4977210;28;20439;-74
2024/01/31 03:35:50;;;;;;;181.77;114.75;;;-1.40;99.90;;;;;;4976802;28;20050;-74
2024/01/31 03:38:16;;;;;;;193.32;120.57;;;-1.50;99.90;;;;;;4976376;28;20065;-76
2024/01/31 03:40:42;;;;;;;201.20;121.10;;;-1.50;99.90;;;;;;4987726;28;20034;-75
2024/01/31 03:43:10;;;;;;;193.82;121.82;;;-1.50;99.90;;;;;;4971126;28;20023;-75
2024/01/31 03:45:41;;;;;;;221.45;127.68;;;-1.50;99.90;;;;;;4975140;28;20026;-75
2024/01/31 03:48:09;;;;;;;285.75;166.55;;;-1.50;99.90;;;;;;4959466;28;20118;-75
2024/01/31 03:50:35;;;;;;;270.90;158.70;;;-1.70;99.90;;;;;;4974984;28;20522;-75
2024/01/31 03:53:08;;;;;;;179.48;115.03;;;-1.90;99.90;;;;;;4943772;28;20054;-75
2024/01/31 03:55:42;;;;;;;182.73;110.22;;;-1.80;99.90;;;;;;4944305;28;20093;-76
2024/01/31 03:58:11;;;;;;;169.68;103.35;;;-1.80;99.90;;;;;;4972398;28;20023;-75
2024/01/31 04:00:37;;;;;;;150.80;94.53;;;-1.70;99.90;;;;;;4972820;28;20057;-76
2024/01/31 04:03:03;;;;;;;144.10;89.57;;;-1.80;99.90;;;;;;4938809;28;20038;-75
2024/01/31 04:05:28;;;;;;;132.05;85.07;;;-1.90;99.90;;;;;;4967969;28;20046;-76
2024/01/31 04:07:57;;;;;;;140.13;85.78;;;-1.90;99.90;;;;;;4972557;28;20034;-75
2024/01/31 04:10:23;;;;;;;130.98;85.63;;;-1.90;99.90;;;;;;4976448;28;20045;-74
2024/01/31 04:12:49;;;;;;;137.75;86.57;;;-1.80;99.90;;;;;;4974526;28;20031;-75
2024/01/31 04:15:15;;;;;;;144.20;88.15;;;-1.80;99.90;;;;;;4976238;28;20039;-75
2024/01/31 04:17:41;;;;;;;132.70;87.30;;;-1.80;99.90;;;;;;4976301;28;20035;-76
2024/01/31 04:20:15;;;;;;;141.57;88.10;;;-1.80;99.90;;;;;;4974653;28;20019;-75
2024/01/31 04:22:43;;;;;;;145.60;91.57;;;-1.80;99.90;;;;;;4975883;28;20026;-76
2024/01/31 04:25:09;;;;;;;147.73;93.90;;;-1.80;99.90;;;;;;4976211;28;20021;-76
2024/01/31 04:27:35;;;;;;;144.88;91.18;;;-1.90;99.90;;;;;;4975456;28;20122;-76
2024/01/31 04:30:01;;;;;;;149.75;93.82;;;-1.90;99.90;;;;;;4976119;28;20129;-76
2024/01/31 04:32:27;;;;;;;141.05;88.97;;;-1.80;99.90;;;;;;4961377;28;20037;-75
2024/01/31 04:34:53;;;;;;;135.25;87.97;;;-1.80;99.90;;;;;;4960533;28;20046;-76
2024/01/31 04:37:26;;;;;;;127.43;80.72;;;-1.80;99.90;;;;;;4969759;28;20027;-76
2024/01/31 04:40:00;;;;;;;139.68;88.55;;;-1.80;99.90;;;;;;4976140;28;20035;-75
2024/01/31 04:42:26;;;;;;;128.77;82.43;;;-1.80;99.90;;;;;;4952136;28;20026;-76
2024/01/31 04:44:56;;;;;;;141.70;89.00;;;-1.70;99.90;;;;;;4976067;28;20034;-74
2024/01/31 04:47:25;;;;;;;136.45;86.40;;;-1.80;99.90;;;;;;4975068;28;20023;-74
2024/01/31 04:50:09;;;;;;;134.10;85.75;;;-1.80;99.90;;;;;;4962710;28;20031;-75
2024/01/31 04:52:39;;;;;;;134.88;86.70;;;-1.80;99.90;;;;;;4960817;28;20035;-76
2024/01/31 04:55:06;;;;;;;141.40;82.88;;;-1.80;99.90;;;;;;4963284;28;20078;-76
2024/01/31 04:57:32;;;;;;;139.82;84.65;;;-1.70;99.90;;;;;;4962063;28;20023;-75
2024/01/31 05:00:08;;;;;;;123.45;79.05;;;-1.70;99.90;;;;;;4966550;28;20054;-76
2024/01/31 05:02:38;;;;;;;131.02;82.50;;;-1.80;99.90;;;;;;4948686;28;20039;-74
2024/01/31 05:05:15;;;;;;;125.90;81.00;;;-1.80;99.90;;;;;;4963172;28;20105;-75
2024/01/31 05:07:51;;;;;;;137.85;80.50;;;-1.90;99.90;;;;;;4951170;28;20170;-78
2024/01/31 05:10:19;;;;;;;130.20;85.13;;;-1.90;99.90;;;;;;4975057;28;20561;-74
2024/01/31 05:12:45;;;;;;;148.75;91.20;;;-2.00;99.90;;;;;;4946048;28;20365;-74
2024/01/31 05:15:18;;;;;;;150.80;94.72;;;-2.00;99.90;;;;;;4972854;28;20074;-76
2024/01/31 05:17:44;;;;;;;158.90;99.72;;;-2.10;99.90;;;;;;4962674;28;20073;-76
2024/01/31 05:20:17;;;;;;;155.88;94.80;;;-2.10;99.90;;;;;;4930404;28;20486;-75
2024/01/31 05:22:46;;;;;;;;;;;-2.20;99.90;;;;;;4928946;28;20035;-76
2024/01/31 05:25:12;;;;;;;157.07;97.25;;;-2.10;99.90;;;;;;4970452;28;19964;-78
2024/01/31 05:27:48;;;;;;;162.23;100.38;;;-2.10;99.90;;;;;;4970414;28;20490;-76
2024/01/31 05:30:16;;;;;;;177.65;100.00;;;-2.10;99.90;;;;;;4937820;29;20392;-76
2024/01/31 05:32:45;;;;;;;162.50;96.88;;;-2.10;99.90;;;;;;4970432;28;20031;-77
2024/01/31 05:35:11;;;;;;;156.77;95.03;;;-2.10;99.90;;;;;;4975136;28;20411;-77
2024/01/31 05:37:37;;;;;;;154.73;94.05;;;-2.10;99.90;;;;;;4969952;28;20119;-77
2024/01/31 05:40:16;;;;;;;147.38;88.68;;;-2.00;99.90;;;;;;4972212;28;20490;-76
2024/01/31 05:42:45;;;;;;;155.25;93.03;;;-2.10;99.90;;;;;;4973121;28;20023;-77
2024/01/31 05:45:22;;;;;;;163.20;101.68;;;-2.20;99.90;;;;;;4974104;28;20033;-78
2024/01/31 05:47:57;;;;;;;152.48;95.80;;;-2.20;99.90;;;;;;4962506;28;20031;-76
2024/01/31 05:50:25;;;;;;;158.18;96.05;;;-2.20;99.90;;;;;;4957066;28;20077;-75
2024/01/31 05:53:05;;;;;;;152.57;97.85;;;-2.20;99.90;;;;;;4940813;28;20401;-78
2024/01/31 05:55:39;;;;;;;165.32;98.05;;;-2.10;99.90;;;;;;4974152;28;20475;-77
2024/01/31 05:58:05;;;;;;;161.63;93.90;;;-2.10;99.90;;;;;;4974545;28;20023;-76
2024/01/31 06:00:31;;;;;;;155.25;88.68;;;-2.10;99.90;;;;;;4973884;28;20065;-77
2024/01/31 06:02:57;;;;;;;148.93;89.97;;;-2.10;99.90;;;;;;4965119;28;20392;-77
2024/01/31 06:05:23;;;;;;;158.60;93.28;;;-2.10;99.90;;;;;;4971611;28;20121;-77
2024/01/31 06:07:53;;;;;;;157.40;93.13;;;-2.10;99.90;;;;;;4968767;28;20031;-74
2024/01/31 06:10:21;;;;;;;161.27;95.57;;;-2.10;99.90;;;;;;4941275;28;20038;-76
2024/01/31 06:12:52;;;;;;;157.98;96.72;;;-2.00;99.90;;;;;;4972505;28;20039;-76
2024/01/31 06:15:20;;;;;;;167.93;100.80;;;-2.00;99.90;;;;;;4953457;28;20114;-76
2024/01/31 06:17:46;;;;;;;173.75;102.95;;;-2.00;99.90;;;;;;4974298;28;20026;-75
2024/01/31 06:20:23;;;;;;;255.68;137.30;;;-2.00;99.90;;;;;;4974087;28;20391;-76
2024/01/31 06:22:51;;;;;;;218.32;115.63;;;-2.00;99.90;;;;;;4941158;28;20031;-76
2024/01/31 06:25:18;;;;;;;214.18;116.68;;;-1.90;99.90;;;;;;4971829;28;20098;-76
2024/01/31 06:27:43;;;;;;;213.57;116.47;;;-1.90;99.90;;;;;;4974029;28;20034;-77
2024/01/31 06:30:21;;;;;;;181.18;102.57;;;-1.80;99.90;;;;;;4973892;28;20130;-77
2024/01/31 06:33:05;;;;;;;174.95;105.20;;;-1.70;99.90;;;;;;4940741;28;20039;-77
2024/01/31 06:35:48;;;;;;;167.13;97.53;;;-1.70;99.90;;;;;;4938651;28;20036;-77
2024/01/31 06:38:16;;;;;;;144.20;92.97;;;-1.60;99.90;;;;;;4972476;28;20059;-77
2024/01/31 06:40:44;;;;;;;147.13;93.05;;;-1.50;99.90;;;;;;4969567;28;20536;-78
2024/01/31 06:43:16;;;;;;;145.70;88.82;;;-1.50;99.90;;;;;;4955776;28;20046;-78
2024/01/31 06:45:52;;;;;;;136.10;81.70;;;-1.40;99.90;;;;;;4971662;28;20418;-78
2024/01/31 06:48:18;;;;;;;136.52;82.65;;;-1.30;99.90;;;;;;4940445;28;20026;-76
2024/01/31 06:50:43;;;;;;;133.73;75.68;;;-1.40;99.90;;;;;;4955365;28;20475;-77
2024/01/31 06:53:15;;;;;;;135.40;76.57;;;-1.20;99.90;;;;;;4973858;28;20046;-78
2024/01/31 06:55:41;;;;;;;120.97;77.25;;;-1.00;99.90;;;;;;4971768;28;20483;-77
2024/01/31 06:58:07;;;;;;;130.40;77.43;;;-0.90;99.90;;;;;;4973660;28;20097;-77
2024/01/31 07:00:33;;;;;;;135.25;82.25;;;-0.80;99.90;;;;;;4970068;28;20130;-78
2024/01/31 07:02:58;;;;;;;137.90;83.60;;;-0.80;99.90;;;;;;4972715;28;20138;-77
2024/01/31 07:05:24;;;;;;;127.75;80.55;;;-0.80;99.90;;;;;;4961862;28;20030;-77
2024/01/31 07:07:50;;;;;;;116.85;80.57;;;-0.60;99.90;;;;;;4973633;28;20086;-77
2024/01/31 07:10:16;;;;;;;118.38;78.25;;;-0.50;99.90;;;;;;4973817;28;20053;-77
2024/01/31 07:12:42;;;;;;;123.38;83.88;;;-0.40;99.90;;;;;;4973701;28;20082;-77
2024/01/31 07:15:19;;;;;;;154.20;104.55;;;-0.50;99.90;;;;;;4972297;28;20034;-79
2024/01/31 07:17:53;;;;;;;164.38;112.93;;;-0.50;99.90;;;;;;4940041;28;20031;-75
2024/01/31 07:20:46;;;;;;;155.77;101.35;;;-0.40;99.90;;;;;;4973255;28;20114;-77
2024/01/31 07:23:14;;;;;;;169.15;108.55;;;-0.30;99.90;;;;;;4941449;28;20023;-76
2024/01/31 07:25:43;;;;;;;169.48;111.57;;;-0.30;99.90;;;;;;4939789;28;20482;-77
2024/01/31 07:28:09;;;;;;;162.05;107.50;;;-0.30;99.90;;;;;;4973301;28;20475;-79
2024/01/31 07:30:35;;;;;;;140.05;92.88;;;-0.20;99.90;;;;;;4940263;28;20038;-78
2024/01/31 07:33:03;;;;;;;125.45;85.07;;;-0.20;99.90;;;;;;4972752;28;20106;-76
2024/01/31 07:35:34;;;;;;;127.28;83.35;;;-0.10;99.90;;;;;;4972898;28;20026;-78
2024/01/31 07:38:09;;;;;;;119.32;80.68;;;-0.10;99.90;;;;;;4939909;28;20027;-80
2024/01/31 07:40:36;;;;;;;115.32;74.07;;;0.00;99.90;;;;;;4973149;28;20039;-77
2024/01/31 07:43:02;;;;;;;104.95;73.93;;;0.10;99.90;;;;;;4956245;28;20102;-77
2024/01/31 07:45:33;;;;;;;121.03;73.50;;;0.20;99.90;;;;;;4975912;28;20125;-76
2024/01/31 07:48:07;;;;;;;110.25;74.20;;;0.30;99.90;;;;;;4945218;28;20045;-78
2024/01/31 07:50:36;;;;;;;108.40;70.47;;;0.50;99.90;;;;;;4972954;28;20043;-77
2024/01/31 07:53:10;;;;;;;105.63;70.55;;;0.50;99.90;;;;;;4973486;28;20490;-77
2024/01/31 07:55:44;;;;;;;107.47;67.85;;;0.60;99.90;;;;;;4973205;28;20038;-78
2024/01/31 07:58:12;;;;;;;;;;;0.70;99.90;;;;;;4971739;28;20463;-77
2024/01/31 08:00:38;;;;;;;110.90;74.75;;;0.90;99.90;;;;;;4955796;28;19929;-78
2024/01/31 08:03:22;;;;;;;115.35;75.88;;;0.90;99.90;;;;;;4974883;28;20027;-75
2024/01/31 08:05:53;;;;;;;107.68;71.95;;;1.00;99.90;;;;;;4976390;28;20023;-77
2024/01/31 08:08:22;;;;;;;93.93;62.50;;;1.00;99.90;;;;;;4973479;28;20046;-77
2024/01/31 08:10:48;;;;;;;93.55;59.78;;;1.10;99.90;;;;;;4935526;28;20173;-76
2024/01/31 08:13:14;;;;;;;83.18;56.28;;;1.20;99.90;;;;;;4976386;28;20030;-76
2024/01/31 08:15:40;;;;;;;86.63;57.83;;;1.30;99.90;;;;;;4939521;29;20035;-76
2024/01/31 08:18:08;;;;;;;85.03;56.10;;;1.50;99.90;;;;;;4974705;28;20150;-77
2024/01/31 08:20:34;;;;;;;86.88;52.15;;;1.50;99.90;;;;;;4974835;28;20121;-75
2024/01/31 08:23:00;;;;;;;76.57;51.33;;;1.50;99.90;;;;;;4976392;28;20390;-77
2024/01/31 08:25:26;;;;;;;88.05;57.17;;;1.80;99.90;;;;;;4959148;28;20026;-77
2024/01/31 08:27:53;;;;;;;84.53;52.85;;;1.80;99.90;;;;;;4942962;28;20434;-77
2024/01/31 08:30:23;;;;;;;77.97;52.10;;;2.00;99.90;;;;;;4974737;28;20070;-76
2024/01/31 08:32:49;;;;;;;71.80;47.47;;;2.10;99.90;;;;;;4975823;28;20062;-76
2024/01/31 08:35:15;;;;;;;77.78;50.10;;;2.20;99.90;;;;;;4963413;28;20023;-75
2024/01/31 08:37:54;;;;;;;67.32;47.58;;;2.20;99.90;;;;;;4972257;28;20143;-75
2024/01/31 08:40:21;;;;;;;67.63;47.58;;;2.20;99.90;;;;;;4948739;28;20499;-76
2024/01/31 08:42:47;;;;;;;67.85;46.33;;;2.30;99.90;;;;;;4976199;28;20023;-75
2024/01/31 08:45:13;;;;;;;72.10;46.92;;;2.40;99.90;;;;;;4975937;28;20058;-76
2024/01/31 08:47:40;;;;;;;72.43;46.60;;;2.60;99.90;;;;;;4975630;28;20074;-74
2024/01/31 08:50:06;;;;;;;82.72;54.63;;;2.70;99.90;;;;;;4963201;28;20090;-76
2024/01/31 08:52:32;;;;;;;80.90;53.53;;;2.70;99.90;;;;;;4975836;28;20352;-76
2024/01/31 08:54:59;;;;;;;78.68;56.47;;;2.60;99.90;;;;;;4975582;28;20478;-75
2024/01/31 08:57:25;;;;;;;87.88;57.45;;;2.60;99.90;;;;;;4958644;28;20027;-76
2024/01/31 08:59:50;;;;;;;84.15;59.42;;;2.70;99.90;;;;;;4971774;28;20102;-75
2024/01/31 09:02:16;;;;;;;87.55;58.08;;;2.60;99.90;;;;;;4975789;28;20030;-76
2024/01/31 09:04:42;;;;;;;79.88;53.88;;;2.70;99.90;;;;;;4975615;28;20538;-76
2024/01/31 09:07:08;;;;;;;74.53;49.42;;;2.70;99.90;;;;;;4973893;28;20093;-75
2024/01/31 09:09:39;;;;;;;65.38;44.72;;;2.80;99.90;;;;;;4975456;28;20089;-74
2024/01/31 09:12:13;;;;;;;69.70;45.20;;;2.90;99.90;;;;;;4942348;28;20117;-76
2024/01/31 09:14:40;;;;;;;61.40;44.28;;;3.00;99.90;;;;;;4975296;28;20072;-77
2024/01/31 09:17:06;;;;;;;64.93;46.28;;;3.10;99.90;;;;;;4975150;28;20055;-76
2024/01/31 09:19:40;;;;;;;58.20;39.58;;;3.20;99.90;;;;;;4961467;28;20058;-76
2024/01/31 09:22:06;;;;;;;63.30;41.92;;;3.30;99.90;;;;;;4975044;28;20372;-75
2024/01/31 09:24:35;;;;;;;62.97;42.88;;;3.10;99.90;;;;;;4974222;28;20023;-75
2024/01/31 09:27:01;;;;;;;57.13;39.60;;;3.20;99.90;;;;;;4956388;28;20391;-76
2024/01/31 09:29:27;;;;;;;59.13;38.00;;;3.30;99.90;;;;;;4974400;28;20035;-75
2024/01/31 09:31:56;;;;;;;58.60;38.17;;;3.40;99.90;;;;;;4974840;28;20038;-75
2024/01/31 09:34:21;;;;;;;57.55;38.33;;;3.40;99.90;;;;;;4974833;28;20147;-75
2024/01/31 09:36:53;;;;;;;55.55;39.08;;;3.50;99.90;;;;;;4973270;28;20023;-75
2024/01/31 09:39:19;;;;;;;62.97;39.20;;;3.60;99.90;;;;;;4974712;28;20031;-75
2024/01/31 09:41:53;;;;;;;57.30;37.60;;;3.50;99.90;;;;;;4974704;28;20027;-76
2024/01/31 09:44:24;;;;;;;57.42;37.85;;;3.70;99.90;;;;;;4962509;28;20066;-75
2024/01/31 09:46:58;;;;;;;62.03;38.05;;;3.70;99.90;;;;;;4967335;28;20023;-75
2024/01/31 09:49:25;;;;;;;55.90;37.65;;;3.60;99.90;;;;;;4957514;28;20105;-75
2024/01/31 09:51:58;;;;;;;51.78;37.40;;;3.70;99.90;;;;;;4956791;28;20030;-75
2024/01/31 09:54:31;;;;;;;54.35;36.88;;;3.90;99.90;;;;;;4965169;28;20024;-77
2024/01/31 09:56:57;;;;;;;58.25;37.58;;;4.00;99.90;;;;;;4954933;28;20471;-79
2024/01/31 09:59:32;;;;;;;50.45;35.20;;;4.10;99.90;;;;;;4950143;28;20445;-75
2024/01/31 10:01:59;;;;;;;59.33;36.22;;;4.20;99.90;;;;;;4941448;28;20043;-76
2024/01/31 10:04:35;;;;;;;56.53;37.42;;;4.30;99.90;;;;;;4974839;28;20048;-76
2024/01/31 10:07:06;;;;;;;61.17;38.38;;;4.40;99.90;;;;;;4926473;29;20027;-74
2024/01/31 10:09:38;;;;;;;59.95;38.50;;;4.70;99.90;;;;;;4960109;28;20081;-76
2024/01/31 10:12:06;;;;;;;51.38;36.10;;;4.80;99.90;;;;;;4965413;28;20035;-75
2024/01/31 10:14:33;;;;;;;55.97;36.35;;;4.90;99.90;;;;;;4952836;28;20078;-75
2024/01/31 10:16:59;;;;;;;54.53;37.50;;;4.80;99.90;;;;;;4972647;28;20027;-76
2024/01/31 10:19:25;;;;;;;48.42;32.08;;;4.90;99.90;;;;;;4973341;28;20043;-76
2024/01/31 10:21:51;;;;;;;55.22;36.03;;;4.90;99.90;;;;;;4974073;28;20018;-76
2024/01/31 10:24:17;;;;;;;53.92;36.17;;;4.90;99.90;;;;;;4987051;28;20208;-77
2024/01/31 10:26:43;;;;;;;54.00;37.05;;;4.80;99.90;;;;;;4973617;28;20026;-76
2024/01/31 10:29:11;;;;;;;60.22;37.80;;;4.90;99.90;;;;;;4946642;28;20154;-77
2024/01/31 10:31:39;;;;;;;55.33;35.92;;;4.80;99.90;;;;;;4974027;28;20506;-75
2024/01/31 10:34:06;;;;;;;56.40;36.75;;;4.90;99.90;;;;;;4973203;28;20043;-76
2024/01/31 10:36:40;;;;;;;54.10;37.17;;;5.00;99.90;;;;;;4974033;28;20027;-76
2024/01/31 10:39:11;;;;;;;59.38;39.10;;;5.00;99.90;;;;;;4972449;28;20023;-75
2024/01/31 10:41:40;;;;;;;55.40;37.92;;;5.00;99.90;;;;;;4973791;28;20033;-76
2024/01/31 10:44:10;;;;;;;54.40;36.30;;;5.00;99.90;;;;;;4973756;28;20034;-77
2024/01/31 10:46:44;;;;;;;53.28;34.90;;;4.90;99.90;;;;;;4973977;28;20435;-77
2024/01/31 10:49:16;;;;;;;54.92;34.63;;;4.70;99.90;;;;;;4972011;28;20031;-75
2024/01/31 10:51:50;;;;;;;56.05;38.33;;;4.80;99.90;;;;;;4956253;28;20093;-75
2024/01/31 10:54:21;;;;;;;58.55;36.92;;;4.80;99.90;;;;;;4956391;28;20113;-76
2024/01/31 10:56:48;;;;;;;56.67;38.60;;;5.00;99.90;;;;;;4956568;28;20427;-76
2024/01/31 10:59:16;;;;;;;59.90;40.92;;;5.00;99.90;;;;;;4973793;28;20119;-76
2024/01/31 11:02:01;;;;;;;64.93;45.88;;;4.90;99.90;;;;;;4960328;28;20031;-76
2024/01/31 11:04:39;;;;;;;70.85;49.35;;;5.10;99.90;;;;;;4973601;28;20097;-76
2024/01/31 11:07:20;;;;;;;73.03;50.75;;;5.30;99.90;;;;;;4926109;29;20019;-75
2024/01/31 11:09:47;;;;;;;69.93;47.90;;;5.40;99.90;;;;;;4937310;28;20139;-74
2024/01/31 11:12:15;;;;;;;65.18;47.55;;;5.40;99.90;;;;;;4972016;28;20049;-74
2024/01/31 11:14:48;;;;;;;70.93;48.55;;;5.40;99.90;;;;;;4973409;28;20455;-75
2024/01/31 11:17:34;;;;;;;;;;;5.40;99.90;;;;;;4973842;28;20037;-76
2024/01/31 11:20:01;;;;;;;70.82;50.17;;;5.50;99.90;;;;;;4973067;28;19914;-74
2024/01/31 11:22:30;;;;;;;73.75;53.20;;;5.70;99.90;;;;;;4949192;28;20173;-76
2024/01/31 11:25:04;;;;;;;72.68;52.38;;;5.70;99.90;;;;;;4967631;28;20035;-75
2024/01/31 11:27:33;;;;;;;76.38;54.70;;;5.80;99.90;;;;;;4960151;28;20023;-78
2024/01/31 11:30:06;;;;;;;70.95;47.95;;;5.60;99.90;;;;;;4966641;28;20490;-74
2024/01/31 11:32:35;;;;;;;85.22;55.13;;;5.70;99.90;;;;;;4942664;28;20089;-75
2024/01/31 11:35:12;;;;;;;75.63;53.88;;;5.90;99.90;;;;;;4951687;28;20112;-73
2024/01/31 11:37:38;;;;;;;79.90;52.53;;;6.00;99.90;;;;;;4938728;29;20182;-75
2024/01/31 11:40:04;;;;;;;70.57;51.30;;;6.00;99.90;;;;;;4941774;28;20101;-76
2024/01/31 11:42:41;;;;;;;76.00;53.10;;;6.00;99.90;;;;;;4943907;28;20031;-76
2024/01/31 11:45:17;;;;;;;74.10;50.00;;;6.10;99.90;;;;;;4943006;28;20035;-75
2024/01/31 11:47:46;;;;;;;66.78;45.78;;;6.10;99.90;;;;;;4945605;28;20086;-75
2024/01/31 11:50:14;;;;;;;65.30;45.35;;;6.10;99.30;;;;;;4951482;28;20048;-75
2024/01/31 11:52:41;;;;;;;64.47;43.60;;;6.20;98.10;;;;;;4959619;28;20095;-75
2024/01/31 11:55:13;;;;;;;65.80;44.60;;;6.20;97.80;;;;;;4960177;28;20098;-75
2024/01/31 11:57:39;;;;;;;65.15;45.50;;;6.30;98.40;;;;;;4924181;28;20051;-75
2024/01/31 12:00:06;;;;;;;65.35;44.95;;;6.30;98.60;;;;;;4953898;28;20035;-75
2024/01/31 12:02:43;;;;;;;71.55;46.67;;;6.30;98.20;;;;;;4974785;28;20083;-75
2024/01/31 12:05:24;;;;;;;70.43;47.67;;;6.40;98.30;;;;;;4943904;28;20027;-74
2024/01/31 12:07:59;;;;;;;68.18;44.42;;;6.50;98.00;;;;;;4952667;28;20475;-75
2024/01/31 12:10:33;;;;;;;64.10;45.20;;;6.60;97.20;;;;;;4968300;28;20027;-76
2024/01/31 12:13:00;;;;;;;64.30;43.67;;;6.50;98.30;;;;;;4976316;28;20031;-75
2024/01/31 12:15:27;;;;;;;64.25;44.47;;;6.60;97.40;;;;;;4976751;28;20525;-75
2024/01/31 12:18:02;;;;;;;53.63;37.72;;;6.60;97.60;;;;;;4976296;28;20030;-74
2024/01/31 12:20:29;;;;;;;55.03;39.55;;;6.60;97.10;;;;;;4976102;28;20054;-75
2024/01/31 12:23:00;;;;;;;61.40;41.05;;;6.60;96.40;;;;;;4942895;28;20070;-75
2024/01/31 12:25:29;;;;;;;63.03;43.40;;;6.70;96.70;;;;;;4976007;28;20106;-75
2024/01/31 12:27:55;;;;;;;60.83;44.38;;;6.70;97.20;;;;;;4976173;28;20089;-74
2024/01/31 12:30:21;;;;;;;65.57;45.83;;;6.70;96.90;;;;;;4976356;28;20031;-73
2024/01/31 12:32:52;;;;;;;60.70;43.40;;;6.70;97.10;;;;;;4953390;28;20042;-75
2024/01/31 12:35:19;;;;;;;60.53;43.00;;;6.80;97.30;;;;;;4951892;28;20071;-74
2024/01/31 12:37:45;;;;;;;61.95;42.13;;;6.90;97.20;;;;;;4943111;28;20049;-74